Converse, Louisiana
Current Conditions -  °F | °C
As of 4:35 PM on Wednesday 22 Oct 2014 (Local Time) from KIER Reporting Station
Clear Clear  
Wind Chill: 77°   Ceiling: Unl
Heat Index: 79°   Visibility: 10mi
Dew Point: 54°   Wind: 8mph
Humidity: 44%   Direction: 30°NNE
Pressure: 30.08"   Gusts: 16mph
Location:  31.78°N, 93.69°W
Report Text: KIER 222135Z AUTO 03007G14KT 10SM CLR 25/12 A3008 RMK AO2 T02520121
Loading
Personal Weather Stations






























Interactive Weather Map
Tropical Storm Tracking
New forecast layout! Learn more

10-Day Weather Forecast

Advertisements
Track Severe Weather on mobile